Time;durP1;ratioP1;P1;durP2;ratioP2;P2;SDS_P1;SDS_P2;PMS_P1;PMS_P2;Temp;Humidity;BMP_temperature;BMP_pressure;BME280_temperature;BME280_humidity;BME280_pressure;Samples;Min_cycle;Max_cycle;Signal;HPM_P1;HPM_P2
2021/09/23 00:02:24;;;;;;;39.08;27.63;;;14.60;99.90;;;;;;5095646;28;20043;-76
2021/09/23 00:04:50;;;;;;;39.78;28.85;;;14.60;99.90;;;;;;5096054;28;20040;-76
2021/09/23 00:07:17;;;;;;;43.80;28.42;;;14.60;99.90;;;;;;5126897;28;20035;-76
2021/09/23 00:09:42;;;;;;;40.70;29.58;;;14.60;99.90;;;;;;5077645;28;20043;-76
2021/09/23 00:12:08;;;;;;;40.13;29.45;;;14.60;99.90;;;;;;5115116;28;20035;-76
2021/09/23 00:14:34;;;;;;;38.13;28.15;;;14.60;99.90;;;;;;5112478;28;20031;-76
2021/09/23 00:17:00;;;;;;;42.17;29.83;;;14.60;99.90;;;;;;5102593;28;20032;-76
2021/09/23 00:19:26;;;;;;;40.55;29.75;;;14.60;99.90;;;;;;5095372;28;20042;-76
2021/09/23 00:21:52;;;;;;;42.33;30.60;;;14.90;99.90;;;;;;5094756;28;20035;-76
2021/09/23 00:24:18;;;;;;;45.17;31.25;;;14.50;99.90;;;;;;5116592;28;20395;-76
2021/09/23 00:26:44;;;;;;;40.55;29.77;;;15.00;99.90;;;;;;5116378;28;20032;-76
2021/09/23 00:29:09;;;;;;;45.67;31.25;;;14.50;99.90;;;;;;5108075;27;20123;-76
2021/09/23 00:31:35;;;;;;;46.22;32.17;;;14.50;99.90;;;;;;5099867;28;20039;-76
2021/09/23 00:34:01;;;;;;;45.90;31.92;;;14.50;99.90;;;;;;5098912;28;20518;-76
2021/09/23 00:36:27;;;;;;;46.47;31.45;;;14.50;99.90;;;;;;5116651;27;20035;-76
2021/09/23 00:38:52;;;;;;;48.10;31.40;;;14.50;99.90;;;;;;5098153;28;20028;-76
2021/09/23 00:41:18;;;;;;;40.95;31.45;;;14.50;99.90;;;;;;5097701;28;20047;-76
2021/09/23 00:43:44;;;;;;;42.00;30.55;;;14.50;99.90;;;;;;5100449;28;20035;-76
2021/09/23 00:46:10;;;;;;;44.17;31.85;;;14.40;99.90;;;;;;5101178;28;20035;-76
2021/09/23 00:48:35;;;;;;;48.30;32.00;;;14.40;99.90;;;;;;5116056;28;20032;-76
2021/09/23 00:51:01;;;;;;;42.88;30.65;;;14.40;99.90;;;;;;5097381;28;20052;-76
2021/09/23 00:53:27;;;;;;;49.55;32.22;;;14.40;99.90;;;;;;5098640;28;20044;-75
2021/09/23 00:55:57;;;;;;;43.38;31.08;;;14.40;99.90;;;;;;5097814;28;20047;-76
2021/09/23 00:58:25;;;;;;;46.80;30.33;;;14.40;99.90;;;;;;5115809;28;20061;-76
2021/09/23 01:00:50;;;;;;;44.88;30.60;;;14.40;99.90;;;;;;5084723;28;20044;-74
2021/09/23 01:03:16;;;;;;;42.42;30.38;;;14.40;99.90;;;;;;5116163;27;20398;-73
2021/09/23 01:05:42;;;;;;;44.92;30.75;;;14.30;99.90;;;;;;5110094;27;20035;-73
2021/09/23 01:08:08;;;;;;;43.88;31.17;;;14.30;99.90;;;;;;5127848;27;20044;-74
2021/09/23 01:10:33;;;;;;;43.00;29.23;;;14.30;99.90;;;;;;5093582;27;20043;-73
2021/09/23 01:13:03;;;;;;;42.58;31.33;;;14.30;99.90;;;;;;5100338;28;20051;-74
2021/09/23 01:15:29;;;;;;;47.88;30.48;;;14.30;99.90;;;;;;5104021;27;20510;-74
2021/09/23 01:17:54;;;;;;;43.22;30.17;;;14.30;99.90;;;;;;5099527;28;20036;-73
2021/09/23 01:20:20;;;;;;;49.97;31.95;;;14.30;99.90;;;;;;5101122;27;20066;-74
2021/09/23 01:22:47;;;;;;;41.95;31.00;;;14.30;99.90;;;;;;5102934;28;20035;-74
2021/09/23 01:25:18;;;;;;;44.03;30.75;;;14.20;99.90;;;;;;5097971;27;20209;-73
2021/09/23 01:27:44;;;;;;;41.63;30.70;;;14.20;99.90;;;;;;5099848;28;20095;-74
2021/09/23 01:30:11;;;;;;;45.22;32.10;;;14.20;99.90;;;;;;5096815;28;20040;-74
2021/09/23 01:32:36;;;;;;;42.60;30.33;;;14.20;99.90;;;;;;5097056;28;20066;-74
2021/09/23 01:35:03;;;;;;;48.95;32.25;;;14.20;99.90;;;;;;5096140;28;20496;-74
2021/09/23 01:37:28;;;;;;;51.50;33.55;;;14.20;99.90;;;;;;5124095;27;20039;-75
2021/09/23 01:39:54;;;;;;;49.35;32.78;;;14.10;99.90;;;;;;5097472;27;20054;-74
2021/09/23 01:42:21;;;;;;;50.65;33.63;;;14.20;99.90;;;;;;5114429;27;20038;-74
2021/09/23 01:44:47;;;;;;;46.83;33.53;;;14.20;99.90;;;;;;5080313;27;20456;-74
2021/09/23 01:47:13;;;;;;;52.15;34.70;;;14.20;99.90;;;;;;5133851;27;20074;-74
2021/09/23 01:49:38;;;;;;;53.08;35.15;;;14.10;99.90;;;;;;5135527;27;20071;-74
2021/09/23 01:52:04;;;;;;;50.05;34.72;;;14.10;99.90;;;;;;5113166;28;20062;-74
2021/09/23 01:54:30;;;;;;;55.05;36.25;;;14.10;99.90;;;;;;5094678;28;20092;-74
2021/09/23 01:56:56;;;;;;;55.30;36.95;;;14.20;99.90;;;;;;5111808;28;20071;-74
2021/09/23 01:59:23;;;;;;;61.13;36.60;;;14.10;99.90;;;;;;5094457;28;20036;-74
2021/09/23 02:01:48;;;;;;;55.47;36.08;;;14.10;99.90;;;;;;5089896;28;20463;-74
2021/09/23 02:04:15;;;;;;;57.90;36.58;;;14.10;99.90;;;;;;5076021;28;20078;-74
2021/09/23 02:06:40;;;;;;;53.28;36.22;;;14.10;99.90;;;;;;5098032;28;20040;-74
2021/09/23 02:09:06;;;;;;;56.90;35.05;;;14.10;99.90;;;;;;5107438;28;20040;-74
2021/09/23 02:11:32;;;;;;;55.20;36.92;;;14.00;99.90;;;;;;5097288;28;20046;-74
2021/09/23 02:13:57;;;;;;;53.33;36.35;;;14.10;99.90;;;;;;5093180;28;20044;-74
2021/09/23 02:16:23;;;;;;;59.55;37.83;;;14.00;99.90;;;;;;5095734;28;20054;-74
2021/09/23 02:18:49;;;;;;;53.35;36.92;;;14.20;99.90;;;;;;5093386;28;20039;-74
2021/09/23 02:21:14;;;;;;;57.67;38.53;;;14.10;99.90;;;;;;5078320;28;20044;-74
2021/09/23 02:23:41;;;;;;;60.63;38.00;;;14.00;99.90;;;;;;5113140;28;20041;-74
2021/09/23 02:26:06;;;;;;;55.22;36.75;;;14.00;99.90;;;;;;5078792;28;20040;-74
2021/09/23 02:28:34;;;;;;;56.10;37.10;;;14.00;99.90;;;;;;5059064;28;20051;-74
2021/09/23 02:31:00;;;;;;;58.95;38.42;;;14.00;99.90;;;;;;5114817;27;20035;-74
2021/09/23 02:33:26;;;;;;;58.35;37.90;;;14.00;99.90;;;;;;5099611;28;20050;-74
2021/09/23 02:35:52;;;;;;;57.80;37.53;;;14.00;99.90;;;;;;5113409;28;20114;-74
2021/09/23 02:38:18;;;;;;;60.85;39.28;;;14.00;99.90;;;;;;5100852;28;20715;-74
2021/09/23 02:40:46;;;;;;;63.25;39.17;;;14.00;99.90;;;;;;5075204;28;20032;-74
2021/09/23 02:43:12;;;;;;;54.85;38.17;;;14.00;99.90;;;;;;5104796;28;20075;-74
2021/09/23 02:45:38;;;;;;;62.63;38.47;;;14.00;99.90;;;;;;5098670;28;20047;-74
2021/09/23 02:48:04;;;;;;;55.75;36.90;;;14.00;99.90;;;;;;5111434;28;20366;-74
2021/09/23 02:50:30;;;;;;;54.10;38.05;;;14.00;99.90;;;;;;5119725;27;20073;-74
2021/09/23 02:52:55;;;;;;;60.22;39.42;;;14.00;99.90;;;;;;5101722;27;20549;-74
2021/09/23 02:55:21;;;;;;;59.97;38.92;;;14.00;99.90;;;;;;5086742;28;20039;-74
2021/09/23 02:57:47;;;;;;;66.55;39.38;;;14.00;99.90;;;;;;5127953;27;20115;-74
2021/09/23 03:00:13;;;;;;;66.60;40.60;;;14.00;99.90;;;;;;5084612;28;20295;-74
2021/09/23 03:02:38;;;;;;;63.28;40.10;;;14.00;99.90;;;;;;5102765;27;20051;-74
2021/09/23 03:05:04;;;;;;;62.05;38.80;;;14.00;99.90;;;;;;5104511;27;20040;-74
2021/09/23 03:07:30;;;;;;;61.50;39.20;;;14.00;99.90;;;;;;5116059;27;20095;-74
2021/09/23 03:09:56;;;;;;;65.22;39.53;;;14.00;99.90;;;;;;5113717;28;20481;-74
2021/09/23 03:12:21;;;;;;;59.63;39.50;;;14.00;99.90;;;;;;5095045;28;20453;-74
2021/09/23 03:14:47;;;;;;;58.22;38.88;;;14.00;99.90;;;;;;5126710;27;20035;-74
2021/09/23 03:17:13;;;;;;;58.92;38.10;;;14.00;99.90;;;;;;5104772;27;20388;-74
2021/09/23 03:19:38;;;;;;;62.00;39.95;;;14.00;99.90;;;;;;5100623;27;20043;-74
2021/09/23 03:22:04;;;;;;;58.97;38.22;;;13.90;99.90;;;;;;5089434;27;20057;-74
2021/09/23 03:24:30;;;;;;;66.35;38.78;;;13.90;99.90;;;;;;5133680;27;20035;-74
2021/09/23 03:26:56;;;;;;;61.10;37.33;;;13.90;99.90;;;;;;5112645;27;20039;-74
2021/09/23 03:29:22;;;;;;;59.63;38.97;;;13.90;99.90;;;;;;5113457;27;20080;-74
2021/09/23 03:31:48;;;;;;;59.85;38.42;;;13.90;99.90;;;;;;5119077;27;20040;-74
2021/09/23 03:34:13;;;;;;;62.90;39.58;;;13.90;99.90;;;;;;5097152;27;20454;-74
2021/09/23 03:36:39;;;;;;;63.97;38.40;;;13.90;99.90;;;;;;5104996;28;20043;-76
2021/09/23 03:39:06;;;;;;;67.18;39.88;;;13.90;99.90;;;;;;5079024;28;20381;-74
2021/09/23 03:41:32;;;;;;;62.05;38.15;;;13.90;99.90;;;;;;5077874;28;20078;-73
2021/09/23 03:43:59;;;;;;;62.28;37.78;;;13.90;99.90;;;;;;5127330;27;20422;-75
2021/09/23 03:46:25;;;;;;;58.72;37.35;;;13.90;99.90;;;;;;5094444;28;20382;-76
2021/09/23 03:48:50;;;;;;;57.67;37.97;;;13.90;99.90;;;;;;5101006;28;20034;-76
2021/09/23 03:51:16;;;;;;;61.67;39.33;;;13.80;99.90;;;;;;5123932;28;20051;-76
2021/09/23 03:53:43;;;;;;;63.92;40.10;;;13.80;99.90;;;;;;5094725;28;20039;-76
2021/09/23 03:56:12;;;;;;;62.72;39.50;;;13.90;99.90;;;;;;5112545;28;20388;-76
2021/09/23 03:58:42;;;;;;;67.63;39.75;;;13.90;99.90;;;;;;5118319;27;20491;-76
2021/09/23 04:01:09;;;;;;;59.25;38.85;;;13.90;99.90;;;;;;5087764;27;20050;-76
2021/09/23 04:03:35;;;;;;;65.72;39.65;;;13.90;99.90;;;;;;5124831;27;20042;-76
2021/09/23 04:06:01;;;;;;;59.97;38.92;;;13.90;99.90;;;;;;5131234;27;20068;-76
2021/09/23 04:08:27;;;;;;;63.33;38.85;;;13.90;99.90;;;;;;5126381;27;20117;-76
2021/09/23 04:10:53;;;;;;;63.65;39.58;;;13.90;99.90;;;;;;5107874;28;20110;-76
2021/09/23 04:13:18;;;;;;;57.85;38.50;;;14.10;99.90;;;;;;5082652;28;20055;-76
2021/09/23 04:15:46;;;;;;;63.53;38.72;;;14.00;99.90;;;;;;5098510;28;20097;-76
2021/09/23 04:18:15;;;;;;;63.15;39.33;;;13.90;99.90;;;;;;5081259;28;20043;-76
2021/09/23 04:20:42;;;;;;;65.75;39.78;;;14.00;99.90;;;;;;5102465;28;20370;-76
2021/09/23 04:23:08;;;;;;;64.22;40.25;;;13.90;99.90;;;;;;5103798;27;20043;-76
2021/09/23 04:25:33;;;;;;;64.53;40.28;;;14.00;99.90;;;;;;5125687;27;20508;-76
2021/09/23 04:27:59;;;;;;;63.38;40.15;;;14.00;99.90;;;;;;5109077;28;20546;-76
2021/09/23 04:30:25;;;;;;;64.82;40.15;;;13.90;99.90;;;;;;5113854;28;20035;-74
2021/09/23 04:32:51;;;;;;;63.47;40.50;;;14.00;99.90;;;;;;5081180;28;20083;-74
2021/09/23 04:35:16;;;;;;;67.07;41.63;;;14.00;99.90;;;;;;5078717;28;20096;-74
2021/09/23 04:37:42;;;;;;;67.68;40.53;;;14.00;99.90;;;;;;5116459;27;20043;-74
2021/09/23 04:40:09;;;;;;;68.22;40.78;;;14.00;99.90;;;;;;5117473;27;20040;-74
2021/09/23 04:42:35;;;;;;;64.95;41.22;;;14.00;99.90;;;;;;5129264;27;20064;-74
2021/09/23 04:45:00;;;;;;;74.97;41.92;;;14.00;99.90;;;;;;5115715;27;20039;-75
2021/09/23 04:47:26;;;;;;;74.68;42.58;;;14.00;99.90;;;;;;5103216;28;20038;-75
2021/09/23 04:49:52;;;;;;;69.28;40.92;;;14.10;99.90;;;;;;5127640;27;20047;-75
2021/09/23 04:52:17;;;;;;;72.10;42.08;;;14.10;99.90;;;;;;5115019;28;20038;-75
2021/09/23 04:54:43;;;;;;;66.18;40.97;;;14.10;99.90;;;;;;5125462;27;20118;-75
2021/09/23 04:57:09;;;;;;;76.22;42.53;;;14.20;99.90;;;;;;5119052;27;20042;-74
2021/09/23 04:59:34;;;;;;;73.95;42.30;;;14.10;99.90;;;;;;5100241;28;20104;-75
2021/09/23 05:02:00;;;;;;;68.68;40.45;;;14.20;99.90;;;;;;5101733;28;20043;-74
2021/09/23 05:04:26;;;;;;;66.20;41.10;;;14.20;99.90;;;;;;5090521;28;20120;-74
2021/09/23 05:06:54;;;;;;;68.43;40.80;;;14.20;99.90;;;;;;5080684;28;20389;-76
2021/09/23 05:09:20;;;;;;;72.78;42.40;;;14.20;99.90;;;;;;5079716;28;20089;-76
2021/09/23 05:11:45;;;;;;;67.78;42.30;;;14.20;99.90;;;;;;5123856;27;20027;-74
2021/09/23 05:14:16;;;;;;;70.47;41.80;;;14.20;99.90;;;;;;5122195;27;20046;-75
2021/09/23 05:16:43;;;;;;;69.07;43.38;;;14.20;99.90;;;;;;5081434;28;20071;-75
2021/09/23 05:19:13;;;;;;;73.45;42.47;;;14.20;99.90;;;;;;5107866;27;20047;-74
2021/09/23 05:21:38;;;;;;;71.38;41.92;;;14.30;99.90;;;;;;5110423;28;20497;-74
2021/09/23 05:24:04;;;;;;;70.53;41.97;;;14.30;99.90;;;;;;5108770;27;20066;-74
2021/09/23 05:26:30;;;;;;;74.43;43.42;;;14.30;99.90;;;;;;5098136;28;20035;-74
2021/09/23 05:28:56;;;;;;;70.80;42.28;;;15.30;99.90;;;;;;5104085;27;20525;-74
2021/09/23 05:31:22;;;;;;;74.28;43.50;;;14.30;99.90;;;;;;5087155;28;20481;-76
2021/09/23 05:33:47;;;;;;;76.13;42.42;;;14.30;99.90;;;;;;5107496;28;20393;-76
2021/09/23 05:36:14;;;;;;;73.93;42.50;;;14.30;99.90;;;;;;5106778;27;20039;-76
2021/09/23 05:38:40;;;;;;;70.88;42.72;;;14.40;99.90;;;;;;5124618;27;20035;-76
2021/09/23 05:41:06;;;;;;;77.25;43.92;;;14.40;99.90;;;;;;5106310;27;20035;-76
2021/09/23 05:43:32;;;;;;;80.07;43.85;;;14.40;99.90;;;;;;5116223;27;20617;-76
2021/09/23 05:45:58;;;;;;;78.63;43.90;;;14.40;99.90;;;;;;5104245;27;20031;-76
2021/09/23 05:48:24;;;;;;;70.63;43.17;;;14.40;99.90;;;;;;5122656;27;20068;-76
2021/09/23 05:50:50;;;;;;;72.88;43.80;;;14.50;99.90;;;;;;5130332;27;20055;-74
2021/09/23 05:53:16;;;;;;;74.57;44.28;;;14.50;99.90;;;;;;5102678;28;20126;-76
2021/09/23 05:55:41;;;;;;;79.40;43.03;;;14.50;99.90;;;;;;5099721;27;20122;-76
2021/09/23 05:58:07;;;;;;;78.20;43.28;;;14.50;99.90;;;;;;5125661;27;20069;-74
2021/09/23 06:00:33;;;;;;;77.53;41.33;;;14.50;99.90;;;;;;5111002;27;20043;-75
2021/09/23 06:02:59;;;;;;;70.10;40.53;;;14.60;99.90;;;;;;5102117;27;20425;-76
2021/09/23 06:05:25;;;;;;;64.63;38.72;;;14.60;99.90;;;;;;5135182;27;20510;-80
2021/09/23 06:07:54;;;;;;;62.20;35.63;;;14.60;99.90;;;;;;5097298;27;20031;-85
2021/09/23 06:10:20;;;;;;;61.83;35.22;;;14.60;99.90;;;;;;5105186;28;20071;-79
2021/09/23 06:12:46;;;;;;;65.15;38.40;;;14.60;99.90;;;;;;5108955;28;20078;-79
2021/09/23 06:15:12;;;;;;;62.80;37.38;;;14.70;99.90;;;;;;5114725;28;20449;-79
2021/09/23 06:17:39;;;;;;;64.25;36.95;;;14.70;99.90;;;;;;5075315;28;20052;-79
2021/09/23 06:20:06;;;;;;;63.83;37.67;;;14.70;99.90;;;;;;5094895;28;20073;-78
2021/09/23 06:22:32;;;;;;;63.97;38.88;;;14.70;99.90;;;;;;5080888;28;20382;-79
2021/09/23 06:24:58;;;;;;;66.82;38.97;;;14.90;99.90;;;;;;5102340;27;20174;-82
2021/09/23 06:27:24;;;;;;;74.00;40.53;;;14.70;99.90;;;;;;5108223;27;20485;-81
2021/09/23 06:29:49;;;;;;;68.28;40.72;;;14.80;99.90;;;;;;5068423;27;20473;-80
2021/09/23 06:32:15;;;;;;;69.28;39.60;;;14.70;99.90;;;;;;5078982;28;20046;-80
2021/09/23 06:34:41;;;;;;;68.45;41.13;;;14.70;99.90;;;;;;5108443;27;20035;-80
2021/09/23 06:37:07;;;;;;;75.88;41.08;;;14.70;99.90;;;;;;5099747;27;20112;-82
2021/09/23 06:39:32;;;;;;;64.60;40.03;;;14.70;99.90;;;;;;5095628;28;20111;-77
2021/09/23 06:41:58;;;;;;;69.47;39.85;;;14.70;99.90;;;;;;5109301;27;20043;-76
2021/09/23 06:44:24;;;;;;;69.63;40.75;;;14.70;99.90;;;;;;5105756;28;20126;-76
2021/09/23 06:46:50;;;;;;;71.85;40.70;;;14.70;99.90;;;;;;5095866;27;20450;-77
2021/09/23 06:49:16;;;;;;;72.13;40.50;;;14.70;99.90;;;;;;5080592;27;20058;-82
2021/09/23 06:51:43;;;;;;;71.47;40.20;;;14.70;99.90;;;;;;5110734;27;20493;-82
2021/09/23 06:54:09;;;;;;;74.90;42.28;;;14.70;99.90;;;;;;5086474;28;20449;-82
2021/09/23 06:56:36;;;;;;;69.05;40.85;;;14.80;99.90;;;;;;5126809;27;20122;-82
2021/09/23 06:59:04;;;;;;;70.05;39.80;;;14.80;99.90;;;;;;5094199;28;20074;-82
2021/09/23 07:01:32;;;;;;;66.75;39.22;;;14.80;99.90;;;;;;5091499;27;20079;-84
2021/09/23 07:03:58;;;;;;;69.53;38.55;;;14.90;99.90;;;;;;5108062;27;20102;-84
2021/09/23 07:06:36;;;;;;;68.07;39.38;;;14.90;99.90;;;;;;5086871;27;20104;-84
2021/09/23 07:09:05;;;;;;;63.95;36.63;;;15.00;99.90;;;;;;5110762;27;20128;-77
2021/09/23 07:11:30;;;;;;;58.00;35.10;;;15.00;99.90;;;;;;5100223;28;20036;-77
2021/09/23 07:13:59;;;;;;;58.90;35.55;;;15.10;99.90;;;;;;5089728;28;20046;-77
2021/09/23 07:16:25;;;;;;;64.10;35.00;;;15.10;99.90;;;;;;5078148;28;20040;-77
2021/09/23 07:18:51;;;;;;;59.95;32.95;;;15.10;99.90;;;;;;5082756;27;20040;-77
2021/09/23 07:21:21;;;;;;;50.35;30.65;;;15.20;99.90;;;;;;5122877;27;20096;-77
2021/09/23 07:23:46;;;;;;;52.85;28.80;;;15.20;99.90;;;;;;5100689;28;20138;-81
2021/09/23 07:26:12;;;;;;;50.17;26.30;;;15.30;99.90;;;;;;5118986;27;20122;-76
2021/09/23 07:28:40;;;;;;;39.00;24.98;;;15.40;99.90;;;;;;5099519;27;20031;-77
2021/09/23 07:31:06;;;;;;;39.40;23.92;;;15.50;99.90;;;;;;5103792;28;20051;-76
2021/09/23 07:33:32;;;;;;;38.83;20.98;;;15.50;99.90;;;;;;5077463;28;20118;-81
2021/09/23 07:36:00;;;;;;;35.53;18.88;;;15.50;99.90;;;;;;5104859;27;20487;-79
2021/09/23 07:38:26;;;;;;;32.85;15.38;;;15.60;99.90;;;;;;5076804;28;20039;-82
2021/09/23 07:40:52;;;;;;;20.10;12.32;;;15.60;99.90;;;;;;5085283;28;20047;-82
2021/09/23 07:43:18;;;;;;;17.02;10.20;;;15.60;99.90;;;;;;5096680;28;20179;-82
2021/09/23 07:45:47;;;;;;;15.63;7.20;;;16.00;99.90;;;;;;5124059;28;20031;-82
2021/09/23 07:48:12;;;;;;;13.85;6.13;;;15.80;99.90;;;;;;5118178;28;20535;-76
2021/09/23 07:50:41;;;;;;;11.75;5.45;;;15.80;99.90;;;;;;5084182;28;20039;-76
2021/09/23 07:53:07;;;;;;;14.23;5.07;;;15.90;99.90;;;;;;5102739;28;20055;-77
2021/09/23 07:55:33;;;;;;;13.38;5.25;;;16.00;99.90;;;;;;5097008;28;20047;-76
2021/09/23 07:57:59;;;;;;;11.57;5.15;;;16.10;99.90;;;;;;5076091;28;20035;-76
2021/09/23 08:00:25;;;;;;;11.85;4.75;;;16.00;99.90;;;;;;5104054;28;20486;-76
2021/09/23 08:02:52;;;;;;;14.88;4.55;;;16.10;99.90;;;;;;5099280;28;20035;-76
2021/09/23 08:05:18;;;;;;;13.15;4.88;;;16.20;99.90;;;;;;5101614;28;20397;-76
2021/09/23 08:07:48;;;;;;;12.70;4.38;;;16.20;99.90;;;;;;5102088;28;20032;-76
2021/09/23 08:10:15;;;;;;;17.50;4.20;;;16.20;99.90;;;;;;5100865;28;20051;-77
2021/09/23 08:12:43;;;;;;;11.25;4.05;;;16.30;99.90;;;;;;5096649;28;20032;-78
2021/09/23 08:15:20;;;;;;;9.30;3.70;;;16.30;99.90;;;;;;5085645;28;20405;-81
2021/09/23 08:17:48;;;;;;;10.18;4.45;;;16.30;99.90;;;;;;5102177;28;20481;-80
2021/09/23 08:20:14;;;;;;;11.80;4.07;;;16.30;99.90;;;;;;5123976;28;20127;-81
2021/09/23 08:22:40;;;;;;;12.60;3.67;;;16.30;99.90;;;;;;5088982;28;20114;-81
2021/09/23 08:25:09;;;;;;;9.93;3.58;;;16.30;99.90;;;;;;5101931;28;20035;-81
2021/09/23 08:27:35;;;;;;;12.23;3.65;;;16.30;99.90;;;;;;5096620;28;20092;-81
2021/09/23 08:30:02;;;;;;;11.60;3.40;;;17.00;99.90;;;;;;5090733;28;20027;-80
2021/09/23 08:32:30;;;;;;;11.63;3.40;;;16.40;99.90;;;;;;5096580;28;20035;-79
2021/09/23 08:34:56;;;;;;;8.90;3.10;;;16.40;99.90;;;;;;5058560;28;20123;-78
2021/09/23 08:37:22;;;;;;;8.02;3.58;;;16.50;99.90;;;;;;5104077;28;20504;-80
2021/09/23 08:39:48;;;;;;;9.52;3.25;;;16.50;99.90;;;;;;5093291;28;20035;-79
2021/09/23 08:42:15;;;;;;;12.60;3.50;;;16.60;99.90;;;;;;5094429;28;20040;-79
2021/09/23 08:44:42;;;;;;;19.10;3.50;;;16.60;99.90;;;;;;5107566;27;20046;-78
2021/09/23 08:47:08;;;;;;;13.27;3.75;;;16.70;99.90;;;;;;5114153;27;20096;-79
2021/09/23 08:49:34;;;;;;;12.77;3.33;;;16.70;99.90;;;;;;5111195;27;20031;-77
2021/09/23 08:52:00;;;;;;;11.90;3.20;;;16.80;99.90;;;;;;5111982;27;20051;-78
2021/09/23 08:54:25;;;;;;;8.93;3.28;;;16.80;99.90;;;;;;5107595;27;20121;-77
2021/09/23 08:56:59;;;;;;;8.05;3.03;;;16.80;99.90;;;;;;5090165;27;20114;-78
2021/09/23 08:59:25;;;;;;;8.93;3.05;;;16.90;99.90;;;;;;5112053;27;20101;-81
2021/09/23 09:01:51;;;;;;;13.95;2.90;;;16.90;99.90;;;;;;5083450;27;20051;-80
2021/09/23 09:04:17;;;;;;;9.27;3.05;;;17.00;99.90;;;;;;5088305;28;20040;-78
2021/09/23 09:06:53;;;;;;;13.38;2.92;;;17.00;99.90;;;;;;5117468;27;20055;-77
2021/09/23 09:09:19;;;;;;;16.48;3.15;;;17.00;99.90;;;;;;5092615;27;20036;-76
2021/09/23 09:11:46;;;;;;;14.88;2.88;;;17.10;99.90;;;;;;5114190;27;20400;-76
2021/09/23 09:14:29;;;;;;;12.55;3.03;;;17.10;99.90;;;;;;5102979;27;20047;-76
2021/09/23 09:17:06;;;;;;;12.00;2.88;;;17.10;99.90;;;;;;5090310;27;20035;-76
2021/09/23 09:19:55;;;;;;;11.90;2.72;;;17.10;99.90;;;;;;5109384;27;20396;-76
2021/09/23 09:22:26;;;;;;;14.50;2.90;;;17.20;99.90;;;;;;5106942;27;20039;-76
2021/09/23 09:25:04;;;;;;;15.68;2.65;;;17.20;99.90;;;;;;5109814;28;20507;-76
2021/09/23 09:27:38;;;;;;;9.15;2.53;;;17.20;99.90;;;;;;5091301;27;20046;-76
2021/09/23 09:30:15;;;;;;;12.35;2.65;;;17.20;99.90;;;;;;5117684;27;20046;-76
2021/09/23 09:32:51;;;;;;;15.98;2.58;;;17.20;99.90;;;;;;5105100;27;20031;-77
2021/09/23 09:35:24;;;;;;;10.13;2.50;;;17.20;99.90;;;;;;5090598;27;20027;-77
2021/09/23 09:37:51;;;;;;;14.07;2.75;;;17.30;99.90;;;;;;5087162;28;20378;-75
2021/09/23 09:40:20;;;;;;;18.67;2.70;;;17.40;99.90;;;;;;5103361;27;20605;-74
2021/09/23 09:42:48;;;;;;;8.52;2.20;;;17.40;99.90;;;;;;5108264;27;20027;-76
2021/09/23 09:45:17;;;;;;;10.35;2.40;;;17.40;99.90;;;;;;5110581;27;20115;-76
2021/09/23 09:47:43;;;;;;;16.50;3.00;;;17.40;99.90;;;;;;5100317;27;20038;-76
2021/09/23 09:50:14;;;;;;;15.35;2.65;;;17.40;99.90;;;;;;5064723;28;20446;-77
2021/09/23 09:52:47;;;;;;;12.65;2.58;;;17.30;99.90;;;;;;5101453;27;20102;-77
2021/09/23 09:55:13;;;;;;;12.82;2.50;;;17.30;99.90;;;;;;5103248;28;20056;-78
2021/09/23 09:57:46;;;;;;;12.98;2.33;;;17.20;99.90;;;;;;5112861;27;20072;-78
2021/09/23 10:00:13;;;;;;;8.38;2.10;;;17.20;99.90;;;;;;5104365;28;20043;-78
2021/09/23 10:02:39;;;;;;;17.30;2.85;;;17.20;99.90;;;;;;5101131;27;20108;-77
2021/09/23 10:05:05;;;;;;;11.52;2.38;;;17.20;99.90;;;;;;5100212;28;20100;-78
2021/09/23 10:07:36;;;;;;;11.48;2.50;;;17.10;99.90;;;;;;5103722;27;20039;-78
2021/09/23 10:10:03;;;;;;;12.05;2.90;;;17.10;99.90;;;;;;5107543;28;20075;-78
2021/09/23 10:12:31;;;;;;;15.40;2.95;;;17.10;99.90;;;;;;5079364;28;20043;-77
2021/09/23 10:14:58;;;;;;;15.57;3.15;;;16.60;99.90;;;;;;5079797;28;20047;-77
2021/09/23 10:17:29;;;;;;;11.25;2.60;;;17.10;99.90;;;;;;5079282;28;20489;-77
2021/09/23 10:20:00;;;;;;;17.77;3.50;;;17.10;99.90;;;;;;5102739;28;20039;-85
2021/09/23 10:22:27;;;;;;;15.90;3.05;;;17.10;99.90;;;;;;5096473;28;20039;-85
2021/09/23 10:24:54;;;;;;;14.85;3.03;;;17.10;99.90;;;;;;5112753;27;20038;-85
2021/09/23 10:30:06;;;;;;;11.45;2.47;;;17.10;99.90;;;;;;5121822;27;20039;-86
2021/09/23 10:32:32;;;;;;;18.45;3.20;;;17.00;99.90;;;;;;5132726;27;20115;-86
2021/09/23 10:35:00;;;;;;;16.80;3.35;;;17.10;99.90;;;;;;5094090;27;20031;-78
2021/09/23 10:37:26;;;;;;;13.48;2.70;;;17.10;99.90;;;;;;5092150;28;20047;-78
2021/09/23 10:39:53;;;;;;;16.42;3.78;;;17.10;99.90;;;;;;5097189;28;20126;-77
2021/09/23 10:42:22;;;;;;;14.30;2.85;;;17.00;99.90;;;;;;5093265;28;20035;-77
2021/09/23 10:44:49;;;;;;;11.90;2.75;;;17.10;99.90;;;;;;5105495;27;20039;-78
2021/09/23 10:47:34;;;;;;;12.90;3.30;;;17.00;99.90;;;;;;5098118;28;20156;-78
2021/09/23 10:50:00;;;;;;;14.88;3.22;;;17.00;99.90;;;;;;5104294;27;20122;-78
2021/09/23 10:52:34;;;;;;;13.15;3.20;;;17.00;99.90;;;;;;5098869;27;20469;-77
2021/09/23 10:55:05;;;;;;;16.00;3.58;;;17.20;99.90;;;;;;5108839;27;20114;-77
2021/09/23 10:57:35;;;;;;;10.30;2.58;;;16.90;99.90;;;;;;5097080;28;20076;-77
2021/09/23 11:00:06;;;;;;;14.68;3.28;;;16.90;99.90;;;;;;5095520;28;20047;-77
2021/09/23 11:02:33;;;;;;;17.15;3.40;;;16.80;99.90;;;;;;5109506;28;20118;-77
2021/09/23 11:05:09;;;;;;;19.20;3.35;;;16.80;99.90;;;;;;5082845;28;20405;-77
2021/09/23 11:07:35;;;;;;;12.85;2.70;;;16.70;99.90;;;;;;5077939;28;20359;-77
2021/09/23 11:10:09;;;;;;;20.77;3.88;;;16.70;99.90;;;;;;5113445;28;20027;-77
2021/09/23 11:12:35;;;;;;;14.00;3.63;;;16.70;99.90;;;;;;5098676;27;20393;-77
2021/09/23 11:15:02;;;;;;;18.15;3.60;;;16.70;99.90;;;;;;5107016;28;20047;-77
2021/09/23 11:17:32;;;;;;;20.75;4.00;;;16.70;99.90;;;;;;5079645;27;20035;-79
2021/09/23 11:20:11;;;;;;;19.67;3.78;;;16.60;99.90;;;;;;5101741;27;20027;-88
2021/09/23 11:22:45;;;;;;;17.05;3.70;;;16.70;99.90;;;;;;5084079;28;20058;-88
2021/09/23 11:25:17;;;;;;;14.43;3.15;;;16.70;99.90;;;;;;5095648;28;20071;-88
2021/09/23 11:27:46;;;;;;;19.20;3.88;;;16.70;99.90;;;;;;5093695;27;20112;-87
2021/09/23 11:30:15;;;;;;;13.05;3.08;;;16.70;99.90;;;;;;5122870;27;20089;-82
2021/09/23 11:32:46;;;;;;;14.82;3.42;;;16.80;99.90;;;;;;5126355;27;20035;-82
2021/09/23 11:35:12;;;;;;;17.33;3.92;;;16.80;99.90;;;;;;5098331;28;20043;-83
2021/09/23 11:37:38;;;;;;;11.70;3.22;;;16.80;99.90;;;;;;5095065;28;20040;-83
2021/09/23 11:40:06;;;;;;;24.52;3.88;;;16.80;99.90;;;;;;5109382;28;20095;-84
2021/09/23 11:42:33;;;;;;;12.98;3.53;;;16.90;99.90;;;;;;5079250;28;20040;-83
2021/09/23 11:45:11;;;;;;;16.15;3.30;;;16.90;99.90;;;;;;5087362;28;20047;-77
2021/09/23 11:47:52;;;;;;;15.63;2.90;;;16.90;99.90;;;;;;5082220;28;20419;-77
2021/09/23 11:50:22;;;;;;;15.55;3.17;;;17.00;99.90;;;;;;5109703;28;20050;-77
2021/09/23 11:52:57;;;;;;;14.20;3.42;;;17.00;99.90;;;;;;5110896;28;20146;-77
2021/09/23 11:55:23;;;;;;;12.27;3.13;;;17.00;99.90;;;;;;5099590;28;20038;-77
2021/09/23 11:58:06;;;;;;;15.40;3.72;;;17.00;99.90;;;;;;5093017;28;20048;-77
2021/09/23 12:00:34;;;;;;;13.13;2.58;;;17.10;99.90;;;;;;5103169;28;20040;-77
2021/09/23 12:02:59;;;;;;;14.63;3.20;;;17.30;99.90;;;;;;5092951;28;21373;-77
2021/09/23 12:05:28;;;;;;;9.95;2.85;;;17.10;99.90;;;;;;5109591;28;20042;-77
2021/09/23 12:07:54;;;;;;;13.98;3.10;;;17.20;99.90;;;;;;5096519;28;20035;-77
2021/09/23 12:10:21;;;;;;;15.55;3.58;;;17.20;99.90;;;;;;5103409;28;20058;-77
2021/09/23 12:13:00;;;;;;;16.70;3.22;;;17.20;99.90;;;;;;5114164;28;20039;-77
2021/09/23 12:15:31;;;;;;;13.60;3.10;;;17.30;99.90;;;;;;5093156;28;20035;-77
2021/09/23 12:18:02;;;;;;;17.25;3.53;;;17.40;99.90;;;;;;5084739;27;20072;-77
2021/09/23 12:20:38;;;;;;;13.82;3.83;;;17.60;99.90;;;;;;5116453;27;20412;-77
2021/09/23 12:23:21;;;;;;;15.23;3.45;;;17.50;99.90;;;;;;5100515;27;20035;-78
2021/09/23 12:26:21;;;;;;;10.60;2.75;;;17.60;99.90;;;;;;5121434;27;20065;-77
2021/09/23 12:28:52;;;;;;;15.82;2.58;;;17.60;99.90;;;;;;5097734;28;20032;-78
2021/09/23 12:31:38;;;;;;;15.30;3.08;;;17.70;99.90;;;;;;5084175;28;20043;-78
2021/09/23 12:34:14;;;;;;;10.98;3.00;;;17.70;99.90;;;;;;5122423;27;20075;-78
2021/09/23 12:36:47;;;;;;;17.15;2.97;;;17.80;99.90;;;;;;5118636;27;20050;-78